Hilvarenbeek, Netherlands
Current Conditions -  °F | °C
As of 9:47 AM on Friday 19 Dec 2014 (Local Time) from EHGR Reporting Station
Drizzle Drizzle  
Wind Chill: 54°   Ceiling: 800
Heat Index: 54°   Visibility: 2.8mi
Dew Point: 52°   Wind: 15mph
Humidity: 94%   Direction: 240°WSW
Pressure: 29.77"   Gusts: 32mph
Location:  51.49°N, 5.14°E
Report Text: EHGR 190847Z AUTO 24013G28KT 4600 +DZ SCT006 BKN008 BKN009 12/11 Q1008 YLO 23015G30KT 7000 -RA FEW007 SCT009 OVC011 TEMPO 3000 RA FEW005 SCT006 OVC008
Loading
Personal Weather Stations






























Interactive Weather Map New forecast layout! Learn more

10-Day Weather Forecast

Advertisements
Track Severe Weather on mobile